sensor_id;sensor_type;location;lat;lon;timestamp;P1;durP1;ratioP1;P2;durP2;ratioP2
36411;SDS011;22445;52.100;5.176;2022-12-18T00:01:47;122.13;;;37.13;;
36411;SDS011;22445;52.100;5.176;2022-12-18T00:04:23;111.28;;;36.63;;
36411;SDS011;22445;52.100;5.176;2022-12-18T00:06:50;103.82;;;34.13;;
36411;SDS011;22445;52.100;5.176;2022-12-18T00:09:15;116.13;;;37.10;;
36411;SDS011;22445;52.100;5.176;2022-12-18T00:11:41;121.75;;;37.85;;
36411;SDS011;22445;52.100;5.176;2022-12-18T00:14:08;100.90;;;31.85;;
36411;SDS011;22445;52.100;5.176;2022-12-18T00:16:34;100.05;;;35.88;;
36411;SDS011;22445;52.100;5.176;2022-12-18T00:19:02;112.40;;;36.05;;
36411;SDS011;22445;52.100;5.176;2022-12-18T00:21:28;133.40;;;37.45;;
36411;SDS011;22445;52.100;5.176;2022-12-18T00:23:55;126.38;;;37.35;;
36411;SDS011;22445;52.100;5.176;2022-12-18T00:26:39;116.18;;;35.35;;
36411;SDS011;22445;52.100;5.176;2022-12-18T00:29:07;112.30;;;35.35;;
36411;SDS011;22445;52.100;5.176;2022-12-18T00:31:35;129.90;;;40.33;;
36411;SDS011;22445;52.100;5.176;2022-12-18T00:34:01;102.10;;;35.47;;
36411;SDS011;22445;52.100;5.176;2022-12-18T00:36:28;119.03;;;37.75;;
36411;SDS011;22445;52.100;5.176;2022-12-18T00:38:56;125.18;;;38.75;;
36411;SDS011;22445;52.100;5.176;2022-12-18T00:41:23;115.05;;;39.70;;
36411;SDS011;22445;52.100;5.176;2022-12-18T00:44:08;107.05;;;36.97;;
36411;SDS011;22445;52.100;5.176;2022-12-18T00:46:35;126.13;;;37.15;;
36411;SDS011;22445;52.100;5.176;2022-12-18T00:49:01;131.27;;;38.75;;
36411;SDS011;22445;52.100;5.176;2022-12-18T00:51:27;149.80;;;41.28;;
36411;SDS011;22445;52.100;5.176;2022-12-18T00:53:52;114.05;;;37.17;;
36411;SDS011;22445;52.100;5.176;2022-12-18T00:56:18;128.65;;;38.10;;
36411;SDS011;22445;52.100;5.176;2022-12-18T00:58:44;110.95;;;38.58;;
36411;SDS011;22445;52.100;5.176;2022-12-18T01:01:09;111.32;;;37.30;;
36411;SDS011;22445;52.100;5.176;2022-12-18T01:03:35;118.72;;;39.13;;
36411;SDS011;22445;52.100;5.176;2022-12-18T01:06:07;123.28;;;38.95;;
36411;SDS011;22445;52.100;5.176;2022-12-18T01:08:35;116.80;;;35.05;;
36411;SDS011;22445;52.100;5.176;2022-12-18T01:11:01;121.72;;;38.85;;
36411;SDS011;22445;52.100;5.176;2022-12-18T01:13:32;125.38;;;37.97;;
36411;SDS011;22445;52.100;5.176;2022-12-18T01:15:57;136.05;;;39.10;;
36411;SDS011;22445;52.100;5.176;2022-12-18T01:18:23;104.07;;;37.97;;
36411;SDS011;22445;52.100;5.176;2022-12-18T01:20:48;110.18;;;37.72;;
36411;SDS011;22445;52.100;5.176;2022-12-18T01:23:14;122.68;;;36.72;;
36411;SDS011;22445;52.100;5.176;2022-12-18T01:25:39;113.75;;;35.58;;
36411;SDS011;22445;52.100;5.176;2022-12-18T01:28:05;128.02;;;36.38;;
36411;SDS011;22445;52.100;5.176;2022-12-18T01:30:31;116.47;;;34.53;;
36411;SDS011;22445;52.100;5.176;2022-12-18T01:32:56;124.40;;;35.72;;
36411;SDS011;22445;52.100;5.176;2022-12-18T01:35:22;117.90;;;35.47;;
36411;SDS011;22445;52.100;5.176;2022-12-18T01:37:48;94.25;;;31.73;;
36411;SDS011;22445;52.100;5.176;2022-12-18T01:40:13;118.05;;;35.80;;
36411;SDS011;22445;52.100;5.176;2022-12-18T01:42:39;119.07;;;33.42;;
36411;SDS011;22445;52.100;5.176;2022-12-18T01:45:06;114.85;;;38.58;;
36411;SDS011;22445;52.100;5.176;2022-12-18T01:48:05;113.90;;;36.75;;
36411;SDS011;22445;52.100;5.176;2022-12-18T01:53:23;122.60;;;36.88;;
36411;SDS011;22445;52.100;5.176;2022-12-18T01:55:52;115.65;;;36.58;;
36411;SDS011;22445;52.100;5.176;2022-12-18T01:58:20;118.20;;;39.38;;
36411;SDS011;22445;52.100;5.176;2022-12-18T02:00:49;122.07;;;38.85;;
36411;SDS011;22445;52.100;5.176;2022-12-18T02:03:15;111.32;;;37.53;;
36411;SDS011;22445;52.100;5.176;2022-12-18T02:05:45;111.70;;;36.80;;
36411;SDS011;22445;52.100;5.176;2022-12-18T02:14:55;109.28;;;36.30;;
36411;SDS011;22445;52.100;5.176;2022-12-18T02:17:30;106.38;;;36.13;;
36411;SDS011;22445;52.100;5.176;2022-12-18T02:20:28;101.07;;;33.50;;
36411;SDS011;22445;52.100;5.176;2022-12-18T02:23:06;100.60;;;35.92;;
36411;SDS011;22445;52.100;5.176;2022-12-18T02:29:13;92.97;;;34.50;;
36411;SDS011;22445;52.100;5.176;2022-12-18T02:31:52;93.10;;;31.17;;
36411;SDS011;22445;52.100;5.176;2022-12-18T02:34:19;98.43;;;34.97;;
36411;SDS011;22445;52.100;5.176;2022-12-18T02:36:48;87.15;;;30.83;;
36411;SDS011;22445;52.100;5.176;2022-12-18T02:39:15;84.55;;;31.08;;
36411;SDS011;22445;52.100;5.176;2022-12-18T02:41:41;77.68;;;30.63;;
36411;SDS011;22445;52.100;5.176;2022-12-18T02:44:08;85.53;;;30.10;;
36411;SDS011;22445;52.100;5.176;2022-12-18T02:46:56;77.82;;;29.40;;
36411;SDS011;22445;52.100;5.176;2022-12-18T02:56:11;73.57;;;27.02;;
36411;SDS011;22445;52.100;5.176;2022-12-18T02:59:34;62.50;;;26.30;;
36411;SDS011;22445;52.100;5.176;2022-12-18T03:02:43;80.90;;;30.05;;
36411;SDS011;22445;52.100;5.176;2022-12-18T03:04:58;71.40;;;25.85;;
36411;SDS011;22445;52.100;5.176;2022-12-18T03:07:47;69.75;;;26.65;;
36411;SDS011;22445;52.100;5.176;2022-12-18T03:10:18;68.80;;;26.48;;
36411;SDS011;22445;52.100;5.176;2022-12-18T03:12:47;72.82;;;27.35;;
36411;SDS011;22445;52.100;5.176;2022-12-18T03:15:28;71.60;;;27.48;;
36411;SDS011;22445;52.100;5.176;2022-12-18T03:18:03;71.60;;;25.90;;
36411;SDS011;22445;52.100;5.176;2022-12-18T03:20:31;62.22;;;25.45;;
36411;SDS011;22445;52.100;5.176;2022-12-18T03:22:59;61.33;;;25.55;;
36411;SDS011;22445;52.100;5.176;2022-12-18T03:25:28;65.00;;;25.35;;
36411;SDS011;22445;52.100;5.176;2022-12-18T03:27:55;64.65;;;27.13;;
36411;SDS011;22445;52.100;5.176;2022-12-18T03:30:23;61.47;;;24.58;;
36411;SDS011;22445;52.100;5.176;2022-12-18T03:32:50;52.10;;;23.13;;
36411;SDS011;22445;52.100;5.176;2022-12-18T03:35:22;63.33;;;24.52;;
36411;SDS011;22445;52.100;5.176;2022-12-18T03:37:51;57.75;;;25.45;;
36411;SDS011;22445;52.100;5.176;2022-12-18T03:40:16;67.30;;;24.27;;
36411;SDS011;22445;52.100;5.176;2022-12-18T03:42:46;56.65;;;24.80;;
36411;SDS011;22445;52.100;5.176;2022-12-18T03:45:31;59.60;;;25.55;;
36411;SDS011;22445;52.100;5.176;2022-12-18T03:48:01;55.65;;;22.75;;
36411;SDS011;22445;52.100;5.176;2022-12-18T03:53:22;64.60;;;27.15;;
36411;SDS011;22445;52.100;5.176;2022-12-18T03:55:54;64.03;;;26.58;;
36411;SDS011;22445;52.100;5.176;2022-12-18T03:58:22;68.07;;;27.65;;
36411;SDS011;22445;52.100;5.176;2022-12-18T04:00:48;64.05;;;26.35;;
36411;SDS011;22445;52.100;5.176;2022-12-18T04:03:15;63.33;;;25.95;;
36411;SDS011;22445;52.100;5.176;2022-12-18T04:05:42;60.08;;;26.13;;
36411;SDS011;22445;52.100;5.176;2022-12-18T04:08:08;63.72;;;25.45;;
36411;SDS011;22445;52.100;5.176;2022-12-18T04:10:34;58.22;;;26.80;;
36411;SDS011;22445;52.100;5.176;2022-12-18T04:13:00;64.05;;;26.20;;
36411;SDS011;22445;52.100;5.176;2022-12-18T04:15:26;61.28;;;25.60;;
36411;SDS011;22445;52.100;5.176;2022-12-18T04:17:52;63.17;;;26.27;;
36411;SDS011;22445;52.100;5.176;2022-12-18T04:20:17;60.40;;;24.77;;
36411;SDS011;22445;52.100;5.176;2022-12-18T04:22:43;65.00;;;24.92;;
36411;SDS011;22445;52.100;5.176;2022-12-18T04:25:08;56.33;;;23.90;;
36411;SDS011;22445;52.100;5.176;2022-12-18T04:27:34;59.10;;;24.10;;
36411;SDS011;22445;52.100;5.176;2022-12-18T04:29:59;52.33;;;23.95;;
36411;SDS011;22445;52.100;5.176;2022-12-18T04:32:26;48.40;;;22.10;;
36411;SDS011;22445;52.100;5.176;2022-12-18T04:34:51;47.80;;;21.38;;
36411;SDS011;22445;52.100;5.176;2022-12-18T04:37:17;46.70;;;21.40;;
36411;SDS011;22445;52.100;5.176;2022-12-18T04:39:42;50.20;;;23.45;;
36411;SDS011;22445;52.100;5.176;2022-12-18T04:42:08;53.63;;;22.05;;
36411;SDS011;22445;52.100;5.176;2022-12-18T04:44:33;52.03;;;22.17;;
36411;SDS011;22445;52.100;5.176;2022-12-18T04:46:59;48.45;;;21.55;;
36411;SDS011;22445;52.100;5.176;2022-12-18T04:49:24;45.47;;;22.50;;
36411;SDS011;22445;52.100;5.176;2022-12-18T04:51:50;47.53;;;22.25;;
36411;SDS011;22445;52.100;5.176;2022-12-18T04:54:16;43.80;;;20.27;;
36411;SDS011;22445;52.100;5.176;2022-12-18T04:56:42;52.67;;;20.75;;
36411;SDS011;22445;52.100;5.176;2022-12-18T04:59:07;42.65;;;19.63;;
36411;SDS011;22445;52.100;5.176;2022-12-18T05:01:33;46.15;;;20.92;;
36411;SDS011;22445;52.100;5.176;2022-12-18T05:03:58;44.97;;;19.52;;
36411;SDS011;22445;52.100;5.176;2022-12-18T05:06:24;46.20;;;20.38;;
36411;SDS011;22445;52.100;5.176;2022-12-18T05:08:49;43.70;;;20.90;;
36411;SDS011;22445;52.100;5.176;2022-12-18T05:11:15;43.88;;;20.30;;
36411;SDS011;22445;52.100;5.176;2022-12-18T05:13:41;44.38;;;20.02;;
36411;SDS011;22445;52.100;5.176;2022-12-18T05:16:07;41.33;;;18.67;;
36411;SDS011;22445;52.100;5.176;2022-12-18T05:18:33;43.28;;;19.20;;
36411;SDS011;22445;52.100;5.176;2022-12-18T05:20:59;39.28;;;20.15;;
36411;SDS011;22445;52.100;5.176;2022-12-18T05:23:25;44.08;;;18.35;;
36411;SDS011;22445;52.100;5.176;2022-12-18T05:25:51;44.55;;;19.27;;
36411;SDS011;22445;52.100;5.176;2022-12-18T05:28:18;38.53;;;17.63;;
36411;SDS011;22445;52.100;5.176;2022-12-18T05:30:51;33.63;;;16.83;;
36411;SDS011;22445;52.100;5.176;2022-12-18T05:33:18;36.80;;;18.40;;
36411;SDS011;22445;52.100;5.176;2022-12-18T05:35:49;41.92;;;17.77;;
36411;SDS011;22445;52.100;5.176;2022-12-18T05:38:18;38.65;;;18.55;;
36411;SDS011;22445;52.100;5.176;2022-12-18T05:40:44;37.55;;;16.98;;
36411;SDS011;22445;52.100;5.176;2022-12-18T05:43:10;32.88;;;15.57;;
36411;SDS011;22445;52.100;5.176;2022-12-18T05:45:39;29.80;;;15.63;;
36411;SDS011;22445;52.100;5.176;2022-12-18T05:48:05;30.70;;;15.50;;
36411;SDS011;22445;52.100;5.176;2022-12-18T05:50:33;33.95;;;16.38;;
36411;SDS011;22445;52.100;5.176;2022-12-18T05:52:59;34.47;;;16.35;;
36411;SDS011;22445;52.100;5.176;2022-12-18T05:55:25;36.60;;;16.25;;
36411;SDS011;22445;52.100;5.176;2022-12-18T05:57:51;37.38;;;17.70;;
36411;SDS011;22445;52.100;5.176;2022-12-18T06:00:17;31.95;;;16.60;;
36411;SDS011;22445;52.100;5.176;2022-12-18T06:02:42;36.47;;;16.77;;
36411;SDS011;22445;52.100;5.176;2022-12-18T06:05:12;34.10;;;15.77;;
36411;SDS011;22445;52.100;5.176;2022-12-18T06:07:37;33.25;;;16.17;;
36411;SDS011;22445;52.100;5.176;2022-12-18T06:10:03;33.92;;;16.25;;
36411;SDS011;22445;52.100;5.176;2022-12-18T06:12:28;32.13;;;16.02;;
36411;SDS011;22445;52.100;5.176;2022-12-18T06:14:54;29.17;;;15.10;;
36411;SDS011;22445;52.100;5.176;2022-12-18T06:17:19;32.10;;;14.82;;
36411;SDS011;22445;52.100;5.176;2022-12-18T06:19:45;26.23;;;13.18;;
36411;SDS011;22445;52.100;5.176;2022-12-18T06:22:11;33.40;;;16.30;;
36411;SDS011;22445;52.100;5.176;2022-12-18T06:24:36;33.78;;;16.33;;
36411;SDS011;22445;52.100;5.176;2022-12-18T06:27:01;28.35;;;15.38;;
36411;SDS011;22445;52.100;5.176;2022-12-18T06:29:27;31.77;;;15.30;;
36411;SDS011;22445;52.100;5.176;2022-12-18T06:31:52;34.60;;;16.17;;
36411;SDS011;22445;52.100;5.176;2022-12-18T06:34:18;27.20;;;14.65;;
36411;SDS011;22445;52.100;5.176;2022-12-18T06:36:44;36.15;;;15.07;;
36411;SDS011;22445;52.100;5.176;2022-12-18T06:39:09;29.95;;;14.77;;
36411;SDS011;22445;52.100;5.176;2022-12-18T06:41:34;29.33;;;15.18;;
36411;SDS011;22445;52.100;5.176;2022-12-18T06:44:00;27.17;;;14.75;;
36411;SDS011;22445;52.100;5.176;2022-12-18T06:46:27;29.75;;;15.25;;
36411;SDS011;22445;52.100;5.176;2022-12-18T06:48:52;27.50;;;14.52;;
36411;SDS011;22445;52.100;5.176;2022-12-18T06:51:22;25.38;;;14.35;;
36411;SDS011;22445;52.100;5.176;2022-12-18T06:53:48;28.33;;;15.68;;
36411;SDS011;22445;52.100;5.176;2022-12-18T06:56:14;32.97;;;15.63;;
36411;SDS011;22445;52.100;5.176;2022-12-18T06:58:41;28.77;;;15.70;;
36411;SDS011;22445;52.100;5.176;2022-12-18T07:01:08;32.92;;;15.48;;
36411;SDS011;22445;52.100;5.176;2022-12-18T07:03:35;27.90;;;13.88;;
36411;SDS011;22445;52.100;5.176;2022-12-18T07:06:02;28.48;;;15.40;;
36411;SDS011;22445;52.100;5.176;2022-12-18T07:08:28;31.52;;;14.73;;
36411;SDS011;22445;52.100;5.176;2022-12-18T07:10:54;27.67;;;14.93;;
36411;SDS011;22445;52.100;5.176;2022-12-18T07:13:23;31.58;;;15.15;;
36411;SDS011;22445;52.100;5.176;2022-12-18T07:15:49;27.65;;;15.20;;
36411;SDS011;22445;52.100;5.176;2022-12-18T07:18:14;28.90;;;14.93;;
36411;SDS011;22445;52.100;5.176;2022-12-18T07:20:40;29.20;;;14.93;;
36411;SDS011;22445;52.100;5.176;2022-12-18T07:23:05;29.95;;;14.90;;
36411;SDS011;22445;52.100;5.176;2022-12-18T07:25:34;31.45;;;17.08;;
36411;SDS011;22445;52.100;5.176;2022-12-18T07:28:00;25.52;;;15.65;;
36411;SDS011;22445;52.100;5.176;2022-12-18T07:30:26;29.73;;;14.25;;
36411;SDS011;22445;52.100;5.176;2022-12-18T07:32:51;31.35;;;15.23;;
36411;SDS011;22445;52.100;5.176;2022-12-18T07:35:17;30.63;;;16.45;;
36411;SDS011;22445;52.100;5.176;2022-12-18T07:37:42;28.02;;;15.35;;
36411;SDS011;22445;52.100;5.176;2022-12-18T07:40:08;30.13;;;16.65;;
36411;SDS011;22445;52.100;5.176;2022-12-18T07:42:34;28.75;;;14.88;;
36411;SDS011;22445;52.100;5.176;2022-12-18T07:45:01;31.60;;;16.95;;
36411;SDS011;22445;52.100;5.176;2022-12-18T07:47:28;28.83;;;16.80;;
36411;SDS011;22445;52.100;5.176;2022-12-18T07:49:53;29.50;;;15.93;;
36411;SDS011;22445;52.100;5.176;2022-12-18T07:52:19;28.17;;;15.02;;
36411;SDS011;22445;52.100;5.176;2022-12-18T07:54:45;28.05;;;16.05;;
36411;SDS011;22445;52.100;5.176;2022-12-18T07:57:10;29.23;;;16.08;;
36411;SDS011;22445;52.100;5.176;2022-12-18T07:59:36;29.77;;;16.60;;
36411;SDS011;22445;52.100;5.176;2022-12-18T08:02:02;29.63;;;17.17;;
36411;SDS011;22445;52.100;5.176;2022-12-18T08:04:28;25.25;;;16.55;;
36411;SDS011;22445;52.100;5.176;2022-12-18T08:06:53;30.58;;;17.80;;
36411;SDS011;22445;52.100;5.176;2022-12-18T08:09:19;34.30;;;17.52;;
36411;SDS011;22445;52.100;5.176;2022-12-18T08:11:45;29.75;;;17.15;;
36411;SDS011;22445;52.100;5.176;2022-12-18T08:14:10;33.63;;;18.33;;
36411;SDS011;22445;52.100;5.176;2022-12-18T08:16:36;31.67;;;16.15;;
36411;SDS011;22445;52.100;5.176;2022-12-18T08:19:02;29.67;;;15.73;;
36411;SDS011;22445;52.100;5.176;2022-12-18T08:21:29;30.70;;;16.33;;
36411;SDS011;22445;52.100;5.176;2022-12-18T08:23:56;29.90;;;15.35;;
36411;SDS011;22445;52.100;5.176;2022-12-18T08:26:24;25.63;;;15.50;;
36411;SDS011;22445;52.100;5.176;2022-12-18T08:35:34;22.63;;;13.73;;
36411;SDS011;22445;52.100;5.176;2022-12-18T08:38:01;24.15;;;13.90;;
36411;SDS011;22445;52.100;5.176;2022-12-18T08:40:27;21.95;;;12.77;;
36411;SDS011;22445;52.100;5.176;2022-12-18T08:46:20;24.75;;;13.90;;
36411;SDS011;22445;52.100;5.176;2022-12-18T08:48:46;24.95;;;14.00;;
36411;SDS011;22445;52.100;5.176;2022-12-18T08:51:13;26.23;;;14.23;;
36411;SDS011;22445;52.100;5.176;2022-12-18T08:56:15;24.15;;;13.63;;
36411;SDS011;22445;52.100;5.176;2022-12-18T08:58:41;19.88;;;12.40;;
36411;SDS011;22445;52.100;5.176;2022-12-18T09:08:39;22.00;;;12.25;;
36411;SDS011;22445;52.100;5.176;2022-12-18T09:11:09;19.45;;;12.73;;
36411;SDS011;22445;52.100;5.176;2022-12-18T09:13:37;21.98;;;12.32;;
36411;SDS011;22445;52.100;5.176;2022-12-18T09:21:32;19.52;;;11.85;;
36411;SDS011;22445;52.100;5.176;2022-12-18T09:38:20;17.65;;;10.20;;
36411;SDS011;22445;52.100;5.176;2022-12-18T09:43:35;19.35;;;11.60;;
36411;SDS011;22445;52.100;5.176;2022-12-18T09:46:07;18.48;;;11.00;;
36411;SDS011;22445;52.100;5.176;2022-12-18T09:51:16;20.77;;;12.20;;
36411;SDS011;22445;52.100;5.176;2022-12-18T09:53:46;19.45;;;11.55;;
36411;SDS011;22445;52.100;5.176;2022-12-18T09:56:16;19.42;;;11.35;;
36411;SDS011;22445;52.100;5.176;2022-12-18T09:59:00;19.90;;;11.50;;
36411;SDS011;22445;52.100;5.176;2022-12-18T10:01:27;19.70;;;11.02;;
36411;SDS011;22445;52.100;5.176;2022-12-18T10:03:54;20.17;;;11.75;;
36411;SDS011;22445;52.100;5.176;2022-12-18T10:09:39;17.00;;;10.68;;
36411;SDS011;22445;52.100;5.176;2022-12-18T10:21:10;19.25;;;10.93;;
36411;SDS011;22445;52.100;5.176;2022-12-18T10:26:48;19.10;;;11.35;;
36411;SDS011;22445;52.100;5.176;2022-12-18T10:32:19;19.60;;;10.98;;
36411;SDS011;22445;52.100;5.176;2022-12-18T10:35:02;20.33;;;10.40;;
36411;SDS011;22445;52.100;5.176;2022-12-18T10:37:29;17.60;;;11.02;;
36411;SDS011;22445;52.100;5.176;2022-12-18T10:40:05;20.13;;;10.90;;
36411;SDS011;22445;52.100;5.176;2022-12-18T10:42:38;20.85;;;11.65;;
36411;SDS011;22445;52.100;5.176;2022-12-18T10:45:14;17.73;;;10.23;;
36411;SDS011;22445;52.100;5.176;2022-12-18T10:47:48;19.48;;;10.82;;
36411;SDS011;22445;52.100;5.176;2022-12-18T10:50:34;15.38;;;9.70;;
36411;SDS011;22445;52.100;5.176;2022-12-18T10:53:00;15.45;;;8.45;;
36411;SDS011;22445;52.100;5.176;2022-12-18T10:55:34;17.88;;;10.13;;
36411;SDS011;22445;52.100;5.176;2022-12-18T11:01:02;14.13;;;9.38;;
36411;SDS011;22445;52.100;5.176;2022-12-18T11:03:45;17.33;;;9.75;;
36411;SDS011;22445;52.100;5.176;2022-12-18T11:06:13;19.20;;;10.15;;
36411;SDS011;22445;52.100;5.176;2022-12-18T11:08:40;18.08;;;10.63;;
36411;SDS011;22445;52.100;5.176;2022-12-18T11:11:14;16.95;;;10.43;;
36411;SDS011;22445;52.100;5.176;2022-12-18T11:13:56;19.23;;;10.35;;
36411;SDS011;22445;52.100;5.176;2022-12-18T11:16:46;15.68;;;9.45;;
36411;SDS011;22445;52.100;5.176;2022-12-18T11:19:26;18.27;;;9.65;;
36411;SDS011;22445;52.100;5.176;2022-12-18T11:25:04;17.85;;;10.10;;
36411;SDS011;22445;52.100;5.176;2022-12-18T11:27:31;17.85;;;10.30;;
36411;SDS011;22445;52.100;5.176;2022-12-18T11:38:40;16.65;;;9.40;;
36411;SDS011;22445;52.100;5.176;2022-12-18T11:44:19;17.85;;;9.65;;
36411;SDS011;22445;52.100;5.176;2022-12-18T11:50:26;14.35;;;8.90;;
36411;SDS011;22445;52.100;5.176;2022-12-18T11:52:58;15.70;;;9.68;;
36411;SDS011;22445;52.100;5.176;2022-12-18T11:58:44;14.82;;;9.52;;
36411;SDS011;22445;52.100;5.176;2022-12-18T12:11:06;18.42;;;10.73;;
36411;SDS011;22445;52.100;5.176;2022-12-18T12:25:51;16.63;;;9.73;;
36411;SDS011;22445;52.100;5.176;2022-12-18T12:31:39;18.60;;;9.80;;
36411;SDS011;22445;52.100;5.176;2022-12-18T12:34:26;19.13;;;10.95;;
36411;SDS011;22445;52.100;5.176;2022-12-18T12:37:25;17.20;;;10.15;;
36411;SDS011;22445;52.100;5.176;2022-12-18T12:40:18;15.95;;;9.73;;
36411;SDS011;22445;52.100;5.176;2022-12-18T12:42:46;17.45;;;10.43;;
36411;SDS011;22445;52.100;5.176;2022-12-18T12:51:34;16.75;;;10.27;;
36411;SDS011;22445;52.100;5.176;2022-12-18T12:54:01;17.40;;;9.77;;
36411;SDS011;22445;52.100;5.176;2022-12-18T12:56:36;15.05;;;9.60;;
36411;SDS011;22445;52.100;5.176;2022-12-18T12:59:49;17.00;;;9.70;;
36411;SDS011;22445;52.100;5.176;2022-12-18T13:08:12;19.77;;;9.25;;
36411;SDS011;22445;52.100;5.176;2022-12-18T13:10:48;15.98;;;9.68;;
36411;SDS011;22445;52.100;5.176;2022-12-18T13:13:14;17.13;;;10.73;;
36411;SDS011;22445;52.100;5.176;2022-12-18T13:15:47;16.52;;;10.43;;
36411;SDS011;22445;52.100;5.176;2022-12-18T13:18:21;18.35;;;9.93;;
36411;SDS011;22445;52.100;5.176;2022-12-18T13:20:49;20.35;;;9.65;;
36411;SDS011;22445;52.100;5.176;2022-12-18T13:23:35;18.45;;;8.70;;
36411;SDS011;22445;52.100;5.176;2022-12-18T13:28:56;18.90;;;10.15;;
36411;SDS011;22445;52.100;5.176;2022-12-18T13:34:27;18.20;;;10.15;;
36411;SDS011;22445;52.100;5.176;2022-12-18T13:37:33;16.63;;;10.15;;
36411;SDS011;22445;52.100;5.176;2022-12-18T13:55:02;15.90;;;10.18;;
36411;SDS011;22445;52.100;5.176;2022-12-18T13:57:34;17.13;;;10.63;;
36411;SDS011;22445;52.100;5.176;2022-12-18T14:03:26;17.75;;;10.60;;
36411;SDS011;22445;52.100;5.176;2022-12-18T14:06:00;18.58;;;10.25;;
36411;SDS011;22445;52.100;5.176;2022-12-18T14:08:32;18.50;;;10.27;;
36411;SDS011;22445;52.100;5.176;2022-12-18T14:11:03;17.58;;;10.50;;
36411;SDS011;22445;52.100;5.176;2022-12-18T14:16:15;16.70;;;10.20;;
36411;SDS011;22445;52.100;5.176;2022-12-18T14:18:43;17.52;;;10.57;;
36411;SDS011;22445;52.100;5.176;2022-12-18T14:21:29;17.65;;;10.40;;
36411;SDS011;22445;52.100;5.176;2022-12-18T14:24:04;20.85;;;10.48;;
36411;SDS011;22445;52.100;5.176;2022-12-18T14:26:48;22.80;;;11.77;;
36411;SDS011;22445;52.100;5.176;2022-12-18T14:29:28;18.55;;;11.15;;
36411;SDS011;22445;52.100;5.176;2022-12-18T14:32:04;20.52;;;10.57;;
36411;SDS011;22445;52.100;5.176;2022-12-18T14:34:31;17.05;;;10.07;;
36411;SDS011;22445;52.100;5.176;2022-12-18T14:36:57;19.70;;;11.90;;
36411;SDS011;22445;52.100;5.176;2022-12-18T14:39:22;19.55;;;10.52;;
36411;SDS011;22445;52.100;5.176;2022-12-18T14:41:50;16.58;;;10.50;;
36411;SDS011;22445;52.100;5.176;2022-12-18T14:44:16;16.90;;;10.70;;
36411;SDS011;22445;52.100;5.176;2022-12-18T14:46:42;21.30;;;11.15;;
36411;SDS011;22445;52.100;5.176;2022-12-18T15:32:29;22.00;;;11.13;;
36411;SDS011;22445;52.100;5.176;2022-12-18T15:45:15;25.10;;;11.70;;
36411;SDS011;22445;52.100;5.176;2022-12-18T15:50:16;16.73;;;11.80;;
36411;SDS011;22445;52.100;5.176;2022-12-18T16:21:07;24.25;;;12.80;;
36411;SDS011;22445;52.100;5.176;2022-12-18T16:23:33;20.95;;;12.32;;
36411;SDS011;22445;52.100;5.176;2022-12-18T16:25:58;18.75;;;11.60;;
36411;SDS011;22445;52.100;5.176;2022-12-18T16:28:24;19.60;;;11.55;;
36411;SDS011;22445;52.100;5.176;2022-12-18T16:36:00;19.40;;;11.30;;
36411;SDS011;22445;52.100;5.176;2022-12-18T17:10:50;19.88;;;11.98;;
36411;SDS011;22445;52.100;5.176;2022-12-18T17:59:47;24.30;;;13.45;;
36411;SDS011;22445;52.100;5.176;2022-12-18T18:17:42;22.83;;;14.05;;
36411;SDS011;22445;52.100;5.176;2022-12-18T19:04:25;23.05;;;12.05;;
36411;SDS011;22445;52.100;5.176;2022-12-18T19:12:02;23.42;;;14.35;;
36411;SDS011;22445;52.100;5.176;2022-12-18T19:31:36;28.88;;;14.23;;
36411;SDS011;22445;52.100;5.176;2022-12-18T19:34:02;22.83;;;14.48;;
36411;SDS011;22445;52.100;5.176;2022-12-18T19:36:29;27.33;;;15.32;;
36411;SDS011;22445;52.100;5.176;2022-12-18T19:38:56;24.40;;;14.32;;
36411;SDS011;22445;52.100;5.176;2022-12-18T19:41:23;26.05;;;15.60;;
36411;SDS011;22445;52.100;5.176;2022-12-18T19:43:49;27.13;;;15.50;;
36411;SDS011;22445;52.100;5.176;2022-12-18T19:46:16;31.73;;;17.38;;
36411;SDS011;22445;52.100;5.176;2022-12-18T19:48:44;29.58;;;16.35;;
36411;SDS011;22445;52.100;5.176;2022-12-18T19:51:12;23.55;;;14.98;;
36411;SDS011;22445;52.100;5.176;2022-12-18T19:53:39;28.23;;;15.80;;
36411;SDS011;22445;52.100;5.176;2022-12-18T19:56:06;29.00;;;15.77;;
36411;SDS011;22445;52.100;5.176;2022-12-18T19:58:36;27.17;;;17.20;;
36411;SDS011;22445;52.100;5.176;2022-12-18T20:01:02;32.13;;;16.83;;
36411;SDS011;22445;52.100;5.176;2022-12-18T20:03:27;27.00;;;17.10;;
36411;SDS011;22445;52.100;5.176;2022-12-18T20:05:53;32.58;;;17.77;;
36411;SDS011;22445;52.100;5.176;2022-12-18T20:08:19;29.90;;;17.02;;
36411;SDS011;22445;52.100;5.176;2022-12-18T20:10:44;29.00;;;16.65;;
36411;SDS011;22445;52.100;5.176;2022-12-18T20:13:13;28.63;;;16.40;;
36411;SDS011;22445;52.100;5.176;2022-12-18T20:15:39;28.33;;;16.40;;
36411;SDS011;22445;52.100;5.176;2022-12-18T20:18:05;33.47;;;17.50;;
36411;SDS011;22445;52.100;5.176;2022-12-18T20:20:31;29.90;;;15.10;;
36411;SDS011;22445;52.100;5.176;2022-12-18T20:22:56;30.58;;;17.65;;
36411;SDS011;22445;52.100;5.176;2022-12-18T20:25:22;28.83;;;16.65;;
36411;SDS011;22445;52.100;5.176;2022-12-18T20:27:47;30.00;;;16.88;;
36411;SDS011;22445;52.100;5.176;2022-12-18T20:30:13;30.15;;;17.23;;
36411;SDS011;22445;52.100;5.176;2022-12-18T20:32:39;29.17;;;18.35;;
36411;SDS011;22445;52.100;5.176;2022-12-18T20:35:05;35.58;;;18.58;;
36411;SDS011;22445;52.100;5.176;2022-12-18T20:37:30;31.95;;;18.25;;
36411;SDS011;22445;52.100;5.176;2022-12-18T20:39:56;30.23;;;17.77;;
36411;SDS011;22445;52.100;5.176;2022-12-18T20:42:21;31.60;;;16.45;;
36411;SDS011;22445;52.100;5.176;2022-12-18T20:44:47;31.02;;;17.73;;
36411;SDS011;22445;52.100;5.176;2022-12-18T20:47:12;31.15;;;18.52;;
36411;SDS011;22445;52.100;5.176;2022-12-18T20:49:38;31.10;;;17.30;;
36411;SDS011;22445;52.100;5.176;2022-12-18T20:52:03;30.35;;;17.45;;
36411;SDS011;22445;52.100;5.176;2022-12-18T20:54:30;34.63;;;17.80;;
36411;SDS011;22445;52.100;5.176;2022-12-18T20:56:56;35.45;;;19.75;;
36411;SDS011;22445;52.100;5.176;2022-12-18T20:59:22;32.00;;;19.23;;
36411;SDS011;22445;52.100;5.176;2022-12-18T21:01:49;34.10;;;19.33;;
36411;SDS011;22445;52.100;5.176;2022-12-18T21:04:16;30.40;;;18.83;;
36411;SDS011;22445;52.100;5.176;2022-12-18T21:06:42;33.78;;;18.33;;
36411;SDS011;22445;52.100;5.176;2022-12-18T21:09:07;36.08;;;19.92;;
36411;SDS011;22445;52.100;5.176;2022-12-18T21:11:33;32.40;;;18.88;;
36411;SDS011;22445;52.100;5.176;2022-12-18T21:14:21;31.08;;;18.63;;
36411;SDS011;22445;52.100;5.176;2022-12-18T21:16:48;37.00;;;20.50;;
36411;SDS011;22445;52.100;5.176;2022-12-18T21:19:15;32.60;;;19.48;;
36411;SDS011;22445;52.100;5.176;2022-12-18T21:21:42;36.03;;;20.15;;
36411;SDS011;22445;52.100;5.176;2022-12-18T21:24:09;40.13;;;23.42;;
36411;SDS011;22445;52.100;5.176;2022-12-18T21:26:35;39.15;;;22.60;;
36411;SDS011;22445;52.100;5.176;2022-12-18T21:29:03;38.03;;;21.15;;
36411;SDS011;22445;52.100;5.176;2022-12-18T21:31:33;37.83;;;21.65;;
36411;SDS011;22445;52.100;5.176;2022-12-18T21:34:00;36.78;;;20.00;;
36411;SDS011;22445;52.100;5.176;2022-12-18T21:36:26;40.85;;;20.25;;
36411;SDS011;22445;52.100;5.176;2022-12-18T21:38:52;36.20;;;20.42;;